Time;durP1;ratioP1;P1;durP2;ratioP2;P2;SDS_P1;SDS_P2;PMS_P1;PMS_P2;Temp;Humidity;BMP_temperature;BMP_pressure;BME280_temperature;BME280_humidity;BME280_pressure;Samples;Min_cycle;Max_cycle;Signal;HPM_P1;HPM_P2
2022/05/07 00:00:32;;;;;;;11.25;7.63;;;;;;;9.55;93.08;93563.50;5108867;28;20432;-84
2022/05/07 00:02:59;;;;;;;14.65;7.72;;;;;;;9.45;93.53;93557.97;5113174;28;20047;-83
2022/05/07 00:05:26;;;;;;;15.45;8.05;;;;;;;9.40;93.79;93557.75;5114249;28;20483;-83
2022/05/07 00:07:53;;;;;;;11.88;7.50;;;;;;;9.34;94.19;93557.53;5115113;28;20039;-84
2022/05/07 00:10:21;;;;;;;11.20;7.95;;;;;;;9.16;94.71;93541.91;5114611;28;20130;-84
2022/05/07 00:12:47;;;;;;;13.27;8.18;;;;;;;9.09;94.75;93534.97;5115114;28;20052;-83
2022/05/07 00:15:16;;;;;;;14.30;9.15;;;;;;;9.04;94.53;93527.09;5114774;28;20089;-83
2022/05/07 00:20:27;;;;;;;12.40;7.68;;;;;;;9.04;96.15;93544.22;5114713;28;20054;-83
2022/05/07 00:22:54;;;;;;;9.43;6.80;;;;;;;8.90;96.27;93535.69;5114747;28;20144;-84
2022/05/07 00:25:21;;;;;;;14.20;7.63;;;;;;;8.92;97.13;93543.97;5114828;28;20437;-84
2022/05/07 00:27:48;;;;;;;11.57;7.63;;;;;;;8.89;97.42;93545.16;5114591;28;20415;-83
2022/05/07 00:30:16;;;;;;;13.63;7.97;;;;;;;8.75;98.02;93530.72;5114549;28;20047;-83
2022/05/07 00:32:43;;;;;;;12.15;7.82;;;;;;;8.69;98.89;93527.13;5113937;28;20104;-84
2022/05/07 00:35:10;;;;;;;14.50;8.77;;;;;;;8.80;99.07;93544.53;5114158;28;20043;-83
2022/05/07 00:37:37;;;;;;;13.02;8.07;;;;;;;8.84;98.39;93544.91;5114017;28;20055;-84
2022/05/07 00:40:06;;;;;;;10.57;7.15;;;;;;;8.81;98.52;93537.63;5114180;28;20086;-84
2022/05/07 00:42:32;;;;;;;11.45;8.02;;;;;;;8.80;97.98;93538.63;5109813;28;20570;-84
2022/05/07 00:44:59;;;;;;;15.57;7.22;;;;;;;8.84;97.59;93542.38;5092924;28;20105;-83
2022/05/07 00:47:30;;;;;;;11.30;7.18;;;;;;;8.82;97.97;93541.78;5093013;28;20445;-82
2022/05/07 00:51:33;;;;;;;15.82;9.20;;;;;;;8.74;98.68;93542.72;5091783;28;20429;-83
2022/05/07 00:52:45;;;;;;;14.80;8.07;;;;;;;8.65;99.77;93533.59;5092349;28;20402;-83
2022/05/07 00:55:12;;;;;;;;;;;;;;;8.64;99.57;93537.94;5093040;28;20043;-83
2022/05/07 00:57:39;;;;;;;15.57;8.65;;;;;;;8.53;100.00;93523.13;5093360;28;19920;-82
2022/05/07 01:00:08;;;;;;;14.15;8.07;;;;;;;8.60;100.00;93530.84;5098122;28;20036;-83
2022/05/07 01:02:37;;;;;;;13.60;8.60;;;;;;;8.59;100.00;93529.25;5113753;28;20052;-82
2022/05/07 01:05:04;;;;;;;15.05;8.90;;;;;;;8.60;99.87;93529.06;5113469;28;20045;-82
2022/05/07 01:07:33;;;;;;;13.55;8.32;;;;;;;8.55;99.45;93524.50;5112418;28;20044;-85
2022/05/07 01:10:00;;;;;;;11.55;7.72;;;;;;;8.62;98.76;93536.56;5112392;28;20040;-83
2022/05/07 01:12:27;;;;;;;12.40;7.75;;;;;;;8.62;98.42;93531.44;5113169;28;20048;-83
2022/05/07 01:14:56;;;;;;;11.55;8.00;;;;;;;8.59;98.75;93524.13;5113717;28;20084;-83
2022/05/07 01:17:23;;;;;;;13.57;7.97;;;;;;;8.60;98.15;93529.06;5111292;28;20047;-82
2022/05/07 01:19:54;;;;;;;14.05;7.07;;;;;;;8.52;97.54;93522.31;5111130;28;20040;-83
2022/05/07 01:22:22;;;;;;;13.90;8.35;;;;;;;8.61;97.65;93522.94;5109190;28;20036;-83
2022/05/07 01:24:49;;;;;;;14.82;9.63;;;;;;;8.58;97.75;93531.03;5111365;28;20126;-83
2022/05/07 01:27:16;;;;;;;14.35;8.05;;;;;;;8.50;98.91;93533.69;5111035;28;20058;-85
2022/05/07 01:29:43;;;;;;;13.38;7.93;;;;;;;8.40;99.11;93532.28;5109592;28;20044;-83
2022/05/07 01:32:09;;;;;;;12.52;8.18;;;;;;;8.41;99.37;93535.63;5110702;28;20051;-84
2022/05/07 01:34:36;;;;;;;12.93;8.80;;;;;;;8.32;99.31;93541.88;5111065;28;20036;-84
2022/05/07 01:37:04;;;;;;;13.35;8.88;;;;;;;8.18;100.00;93526.41;5110825;28;20182;-84
2022/05/07 01:39:32;;;;;;;12.65;8.73;;;;;;;8.16;100.00;93539.38;5110651;28;20055;-83
2022/05/07 01:41:59;;;;;;;16.25;8.27;;;;;;;8.14;100.00;93538.78;5110768;28;20032;-83
2022/05/07 01:44:26;;;;;;;16.50;8.88;;;;;;;7.99;100.00;93538.09;5110709;28;20052;-83
2022/05/07 01:49:37;;;;;;;10.70;7.53;;;;;;;7.56;100.00;93536.34;5108426;28;20046;-83
2022/05/07 01:52:04;;;;;;;13.00;9.10;;;;;;;7.69;100.00;93539.03;5111252;28;20115;-83
2022/05/07 01:54:32;;;;;;;15.73;9.88;;;;;;;7.79;100.00;93538.72;5110688;28;20548;-84
2022/05/07 01:56:59;;;;;;;15.77;9.10;;;;;;;7.81;100.00;93539.31;5110971;28;20054;-83
2022/05/07 01:59:26;;;;;;;15.05;9.05;;;;;;;7.81;100.00;93538.53;5110844;28;20043;-83
2022/05/07 02:01:53;;;;;;;17.95;9.20;;;;;;;7.84;100.00;93530.50;5110564;28;20104;-83
2022/05/07 02:04:20;;;;;;;13.80;8.07;;;;;;;7.85;100.00;93532.06;5110523;28;20104;-83
2022/05/07 02:06:46;;;;;;;14.15;8.55;;;;;;;7.84;100.00;93530.50;5110724;28;20047;-83
2022/05/07 02:09:13;;;;;;;14.95;8.23;;;;;;;7.84;100.00;93533.84;5110743;28;20380;-83
2022/05/07 02:11:41;;;;;;;11.52;7.55;;;;;;;7.82;100.00;93535.00;5110598;28;20483;-84
2022/05/07 02:14:08;;;;;;;11.85;7.55;;;;;;;7.68;100.00;93529.00;5110699;28;20122;-84
2022/05/07 02:16:35;;;;;;;14.38;8.05;;;;;;;7.66;100.00;93533.47;5107917;28;20059;-82
2022/05/07 02:19:02;;;;;;;13.73;8.02;;;;;;;7.59;100.00;93526.56;5110561;28;20528;-82
2022/05/07 02:21:29;;;;;;;11.98;7.75;;;;;;;7.65;100.00;93532.72;5111129;28;20039;-83
2022/05/07 02:23:56;;;;;;;11.52;8.38;;;;;;;7.64;100.00;93533.66;5107898;28;20098;-82
2022/05/07 02:26:23;;;;;;;13.38;8.50;;;;;;;7.60;100.00;93535.03;5110791;28;20038;-83
2022/05/07 02:28:51;;;;;;;13.73;8.65;;;;;;;7.51;100.00;93538.66;5111739;28;20047;-81
2022/05/07 02:31:18;;;;;;;12.25;8.55;;;;;;;7.48;100.00;93529.59;5111680;28;20093;-82
2022/05/07 02:33:45;;;;;;;10.77;8.13;;;;;;;7.47;100.00;93531.38;5111731;28;20085;-83
2022/05/07 02:36:11;;;;;;;12.20;8.18;;;;;;;7.52;100.00;93535.13;5111704;28;20112;-83
2022/05/07 02:38:39;;;;;;;15.77;8.85;;;;;;;7.47;100.00;93533.13;5111759;28;20394;-83
2022/05/07 02:43:54;;;;;;;14.10;8.82;;;;;;;7.35;100.00;93514.91;5090050;28;20122;-83
2022/05/07 02:46:21;;;;;;;13.95;8.30;;;;;;;7.42;100.00;93535.44;5111636;28;20084;-83
2022/05/07 02:48:48;;;;;;;13.82;7.95;;;;;;;7.45;100.00;93533.31;5111580;28;20039;-83
2022/05/07 02:51:15;;;;;;;12.48;8.48;;;;;;;7.38;100.00;93521.44;5108634;28;20082;-83
2022/05/07 02:53:43;;;;;;;14.35;8.43;;;;;;;7.50;100.00;93535.31;5111306;28;20039;-83
2022/05/07 02:56:09;;;;;;;11.35;8.23;;;;;;;7.41;100.00;93513.41;5111146;28;20047;-83
2022/05/07 02:58:36;;;;;;;11.77;8.35;;;;;;;7.52;100.00;93535.94;5111213;28;20039;-83
2022/05/07 03:01:04;;;;;;;11.15;8.63;;;;;;;7.53;100.00;93532.41;5111175;28;20051;-83
2022/05/07 03:03:31;;;;;;;13.13;8.02;;;;;;;7.51;100.00;93531.81;5111372;28;20100;-83
2022/05/07 03:05:59;;;;;;;11.82;7.65;;;;;;;7.46;100.00;93526.44;5111144;28;20471;-84
2022/05/07 03:08:26;;;;;;;14.25;8.20;;;;;;;7.41;100.00;93521.06;5111115;28;20130;-84
2022/05/07 03:10:53;;;;;;;10.65;7.38;;;;;;;7.47;100.00;93533.13;5110790;28;20032;-84
2022/05/07 03:13:20;;;;;;;11.20;6.90;;;;;;;7.44;100.00;93541.16;5111206;28;20053;-84
2022/05/07 03:15:47;;;;;;;11.60;7.07;;;;;;;7.38;100.00;93541.88;5110915;28;20153;-83
2022/05/07 03:18:15;;;;;;;10.05;7.40;;;;;;;7.26;100.00;93527.03;5111045;28;20044;-83
2022/05/07 03:20:42;;;;;;;12.98;8.05;;;;;;;7.35;100.00;93548.94;5110876;28;20498;-83
2022/05/07 03:23:09;;;;;;;12.35;7.55;;;;;;;7.33;100.00;93544.97;5110792;28;20104;-84
2022/05/07 03:25:35;;;;;;;9.77;6.72;;;;;;;7.18;100.00;93527.91;5108030;28;20039;-83
2022/05/07 03:28:02;;;;;;;10.95;7.68;;;;;;;7.24;100.00;93530.72;5111053;28;20032;-83
2022/05/07 03:30:29;;;;;;;12.90;6.80;;;;;;;7.27;100.00;93543.16;5110982;28;20039;-83
2022/05/07 03:32:56;;;;;;;9.05;6.93;;;;;;;7.31;100.00;93544.38;5108171;28;20417;-83
2022/05/07 03:35:24;;;;;;;9.07;6.60;;;;;;;7.38;100.00;93549.53;5110735;28;20039;-83
2022/05/07 03:37:51;;;;;;;10.80;6.65;;;;;;;7.40;100.00;93548.38;5110524;28;20031;-84
2022/05/07 03:40:18;;;;;;;10.55;7.28;;;;;;;7.31;100.00;93531.59;5110567;28;20056;-83
2022/05/07 03:42:45;;;;;;;15.05;7.60;;;;;;;7.42;100.00;93541.34;5110901;28;20040;-83
2022/05/07 03:45:12;;;;;;;12.45;7.35;;;;;;;7.53;100.00;93549.50;5110626;28;20047;-83
2022/05/07 03:47:39;;;;;;;11.65;6.93;;;;;;;7.57;100.00;93545.59;5110833;28;20100;-82
2022/05/07 03:50:07;;;;;;;13.45;6.47;;;;;;;7.65;100.00;93555.72;5111195;28;20047;-82
2022/05/07 03:55:19;;;;;;;14.98;8.32;;;;;;;7.71;100.00;93561.84;5059602;28;20101;-83
2022/05/07 03:57:46;;;;;;;13.20;6.95;;;;;;;7.78;100.00;93560.13;5111133;28;20471;-83
2022/05/07 04:00:13;;;;;;;14.65;7.45;;;;;;;7.81;100.00;93556.44;5111470;28;20047;-83
2022/05/07 04:02:40;;;;;;;12.32;7.00;;;;;;;7.88;100.00;93559.84;5111063;28;20047;-83
2022/05/07 04:05:08;;;;;;;12.10;7.03;;;;;;;7.88;100.00;93559.84;5110874;28;20395;-83
2022/05/07 04:07:36;;;;;;;11.95;7.45;;;;;;;7.92;100.00;93565.38;5111179;28;20096;-83
2022/05/07 04:10:03;;;;;;;11.40;7.55;;;;;;;8.01;100.00;93564.28;5111116;28;20043;-83
2022/05/07 04:12:30;;;;;;;13.43;6.60;;;;;;;7.96;100.00;93557.16;5110664;28;20066;-83
2022/05/07 04:15:00;;;;;;;12.38;6.90;;;;;;;8.11;100.00;93569.09;5111097;28;20109;-82
2022/05/07 04:17:26;;;;;;;9.20;6.97;;;;;;;8.16;100.00;93562.41;5111055;28;20471;-82
2022/05/07 04:19:54;;;;;;;11.32;7.55;;;;;;;8.19;100.00;93556.13;5111299;28;20051;-83
2022/05/07 04:22:21;;;;;;;9.65;7.32;;;;;;;8.21;100.00;93564.44;5111041;28;20139;-83
2022/05/07 04:24:49;;;;;;;10.60;7.93;;;;;;;8.18;100.00;93564.81;5110658;28;20510;-83
2022/05/07 04:27:16;;;;;;;10.70;7.57;;;;;;;8.14;100.00;93561.81;5110763;28;20048;-83
2022/05/07 04:29:43;;;;;;;11.80;7.45;;;;;;;8.20;100.00;93569.75;5110644;28;20044;-83
2022/05/07 04:32:10;;;;;;;9.95;7.18;;;;;;;8.28;100.00;93560.16;5110574;28;20066;-83
2022/05/07 04:34:37;;;;;;;8.25;6.95;;;;;;;8.31;100.00;93559.00;5110813;28;20044;-83
2022/05/07 04:37:04;;;;;;;8.30;6.05;;;;;;;8.41;100.00;93567.13;5110777;28;20469;-82
2022/05/07 04:39:33;;;;;;;8.80;6.47;;;;;;;8.57;100.00;93556.81;5110793;28;20047;-81
2022/05/07 04:42:01;;;;;;;10.07;6.53;;;;;;;8.78;100.00;93566.19;5110746;28;20075;-82
2022/05/07 04:44:28;;;;;;;16.13;7.72;;;;;;;8.95;100.00;93571.78;5110557;28;20060;-82
2022/05/07 04:46:55;;;;;;;12.73;6.63;;;;;;;9.13;99.86;93565.34;5110535;28;20047;-81
2022/05/07 04:49:22;;;;;;;13.85;6.25;;;;;;;9.17;99.04;93551.19;5114263;28;20426;-83
2022/05/07 04:51:50;;;;;;;10.57;7.03;;;;;;;9.35;96.26;93548.06;5114301;28;20051;-83
2022/05/07 04:54:19;;;;;;;10.77;6.90;;;;;;;9.62;95.88;93566.88;5114251;28;20096;-82
2022/05/07 04:56:47;;;;;;;8.40;6.10;;;;;;;9.77;95.34;93565.94;5114042;28;20054;-82
2022/05/07 04:59:15;;;;;;;11.18;6.85;;;;;;;9.98;94.70;93567.50;5113960;28;20047;-83
2022/05/07 05:01:42;;;;;;;14.20;6.65;;;;;;;10.13;95.04;93562.19;5114191;28;20376;-83
2022/05/07 05:04:09;;;;;;;9.20;6.68;;;;;;;10.12;94.30;93562.38;5114012;28;20047;-83
2022/05/07 05:06:36;;;;;;;12.57;7.53;;;;;;;9.86;95.69;93531.38;5114032;28;20052;-83
2022/05/07 05:09:04;;;;;;;11.45;6.88;;;;;;;10.32;93.11;93572.63;5113965;28;21141;-82
2022/05/07 05:11:31;;;;;;;10.23;6.40;;;;;;;10.57;91.79;93559.22;5113835;28;20062;-83
2022/05/07 05:13:58;;;;;;;11.43;6.65;;;;;;;10.82;90.44;93559.34;5113662;28;20387;-83
2022/05/07 05:16:27;;;;;;;10.73;7.43;;;;;;;10.86;88.69;93528.09;5113850;28;20043;-83
2022/05/07 05:18:54;;;;;;;12.40;7.07;;;;;;;11.33;89.71;93567.28;5113797;28;20047;-83
2022/05/07 05:21:20;;;;;;;11.00;7.18;;;;;;;11.58;85.99;93570.91;5113576;28;20384;-83
2022/05/07 05:23:47;;;;;;;8.98;5.75;;;;;;;11.78;85.15;93575.94;5113558;28;20062;-83
2022/05/07 05:26:14;;;;;;;8.90;5.20;;;;;;;11.71;83.54;93559.75;5113331;28;20051;-83
2022/05/07 05:28:43;;;;;;;7.03;5.05;;;;;;;11.57;86.34;93559.81;5113722;28;20047;-83
2022/05/07 05:31:10;;;;;;;10.02;5.32;;;;;;;11.29;87.14;93573.81;5113668;28;20429;-83
2022/05/07 05:33:38;;;;;;;9.30;5.57;;;;;;;11.65;85.11;93576.00;5113560;28;20047;-84
2022/05/07 05:36:05;;;;;;;8.02;5.65;;;;;;;11.72;84.97;93567.25;5113347;28;20420;-84
2022/05/07 05:38:32;;;;;;;14.15;7.15;;;;;;;11.93;83.61;93577.44;5113349;28;20048;-83
2022/05/07 05:40:59;;;;;;;10.60;6.22;;;;;;;11.72;84.56;93574.97;5113152;28;20048;-83
2022/05/07 05:43:25;;;;;;;10.13;6.00;;;;;;;11.83;85.50;93580.44;5113152;28;20503;-83
2022/05/07 05:45:52;;;;;;;8.77;5.82;;;;;;;12.21;81.74;93577.06;5113043;28;20056;-83
2022/05/07 05:48:19;;;;;;;8.68;5.80;;;;;;;11.80;83.57;93568.78;5113298;28;20048;-83
2022/05/07 05:50:47;;;;;;;9.95;5.68;;;;;;;11.96;84.49;93574.44;5112899;28;20506;-83
2022/05/07 05:53:14;;;;;;;9.35;5.55;;;;;;;12.34;81.49;93583.09;5112957;28;20051;-84
2022/05/07 05:55:41;;;;;;;9.90;5.80;;;;;;;12.27;83.46;93583.94;5112904;28;20488;-82
2022/05/07 05:58:07;;;;;;;9.35;5.70;;;;;;;12.75;80.73;93584.31;5112975;28;20491;-83
2022/05/07 06:00:34;;;;;;;9.20;5.32;;;;;;;13.10;80.26;93586.31;5113045;28;20052;-83
2022/05/07 06:03:01;;;;;;;11.25;6.45;;;;;;;13.00;76.52;93587.84;5113170;28;20058;-83
2022/05/07 06:05:28;;;;;;;8.07;4.70;;;;;;;12.93;75.65;93567.28;5112751;28;20055;-84
2022/05/07 06:07:56;;;;;;;11.15;4.72;;;;;;;13.01;76.71;93595.34;5112660;28;20040;-83
2022/05/07 06:10:23;;;;;;;8.25;4.78;;;;;;;13.10;76.61;93598.44;5112571;28;20054;-83
2022/05/07 06:12:50;;;;;;;9.63;5.20;;;;;;;13.49;74.28;93580.16;5112766;28;20044;-84
2022/05/07 06:15:17;;;;;;;14.02;6.03;;;;;;;13.57;71.75;93577.25;5112712;28;20570;-83
2022/05/07 06:17:44;;;;;;;9.65;4.93;;;;;;;13.94;71.76;93596.25;5112668;28;20058;-84
2022/05/07 06:20:11;;;;;;;12.75;5.70;;;;;;;14.21;68.54;93591.47;5112576;28;20039;-84
2022/05/07 06:22:38;;;;;;;9.90;4.68;;;;;;;14.00;67.58;93603.09;5112257;28;20088;-84
2022/05/07 06:27:51;;;;;;;17.95;6.10;;;;;;;14.73;69.24;93594.41;5112397;28;20092;-84
2022/05/07 06:30:18;;;;;;;10.60;5.30;;;;;;;15.08;66.73;93594.41;5112254;28;20486;-85
2022/05/07 06:32:45;;;;;;;13.32;6.28;;;;;;;14.21;67.29;93599.22;5112300;28;20411;-84
2022/05/07 06:35:12;;;;;;;19.02;7.28;;;;;;;14.40;70.67;93591.38;5112069;28;20044;-85
2022/05/07 06:37:40;;;;;;;16.60;6.95;;;;;;;14.47;68.85;93601.59;5112190;28;20501;-84
2022/05/07 06:40:09;;;;;;;17.80;6.88;;;;;;;14.78;69.67;93591.97;5112057;28;20509;-84
2022/05/07 06:42:36;;;;;;;14.65;7.75;;;;;;;15.07;68.23;93569.56;5112147;28;20055;-84
2022/05/07 06:45:04;;;;;;;14.60;7.65;;;;;;;15.83;64.56;93595.53;5111936;28;20570;-84
2022/05/07 06:47:31;;;;;;;16.08;6.53;;;;;;;15.88;64.22;93574.91;5112287;28;20479;-84
2022/05/07 06:50:01;;;;;;;16.65;6.68;;;;;;;15.59;60.74;93569.72;5112274;28;20140;-83
2022/05/07 06:52:28;;;;;;;16.40;6.90;;;;;;;16.43;62.97;93586.41;5111902;28;20483;-83
2022/05/07 06:54:55;;;;;;;14.43;6.50;;;;;;;16.69;59.14;93581.63;5111913;28;20108;-84
2022/05/07 06:57:24;;;;;;;16.38;6.78;;;;;;;16.36;61.32;93583.22;5112317;28;20047;-83
2022/05/07 06:59:51;;;;;;;15.35;6.35;;;;;;;16.98;60.70;93588.44;5109997;28;20047;-83
2022/05/07 07:02:20;;;;;;;17.98;6.30;;;;;;;17.50;55.80;93574.28;5111761;28;20055;-83
2022/05/07 07:04:46;;;;;;;13.52;6.28;;;;;;;17.31;53.79;93580.84;5111648;28;20051;-84
2022/05/07 07:07:13;;;;;;;15.88;6.65;;;;;;;17.68;56.90;93582.00;5111589;28;20059;-83
2022/05/07 07:09:40;;;;;;;12.48;6.28;;;;;;;17.43;55.34;93573.72;5111532;28;20092;-83
2022/05/07 07:12:09;;;;;;;12.18;6.50;;;;;;;17.69;55.25;93583.56;5111144;28;20135;-83
2022/05/07 07:14:39;;;;;;;11.88;5.85;;;;;;;18.00;55.98;93570.84;5111524;28;20406;-84
2022/05/07 07:17:06;;;;;;;14.88;6.90;;;;;;;18.34;52.15;93575.06;5111388;28;20054;-83
2022/05/07 07:19:34;;;;;;;15.15;6.03;;;;;;;18.75;52.80;93570.13;5111541;28;20043;-83
2022/05/07 07:22:01;;;;;;;14.98;5.85;;;;;;;18.73;52.27;93568.81;5111669;28;20044;-82
2022/05/07 07:24:28;;;;;;;10.95;5.30;;;;;;;18.49;52.03;93569.19;5111275;28;20054;-82
2022/05/07 07:26:55;;;;;;;10.50;4.82;;;;;;;18.46;51.65;93570.47;5111358;28;20047;-83
2022/05/07 07:29:23;;;;;;;10.52;4.80;;;;;;;18.44;49.17;93567.34;5111146;28;20055;-84
2022/05/07 07:31:51;;;;;;;10.65;4.60;;;;;;;18.74;50.75;93563.34;5111495;28;20043;-83
2022/05/07 07:34:18;;;;;;;9.75;4.93;;;;;;;19.08;49.34;93560.44;5111370;28;20044;-83
2022/05/07 07:36:45;;;;;;;10.02;4.82;;;;;;;19.29;48.34;93557.13;5111437;28;20044;-83
2022/05/07 07:39:12;;;;;;;11.88;4.60;;;;;;;19.46;48.20;93560.31;5111266;28;20192;-83
2022/05/07 07:41:39;;;;;;;12.20;5.05;;;;;;;19.50;45.51;93561.34;5111111;28;20055;-83
2022/05/07 07:44:06;;;;;;;11.32;5.15;;;;;;;19.38;45.85;93539.97;5111348;28;20044;-84
2022/05/07 07:49:18;;;;;;;9.80;4.70;;;;;;;19.02;47.62;93558.03;5111129;28;20051;-83
2022/05/07 07:51:45;;;;;;;11.02;5.10;;;;;;;19.18;48.86;93551.09;5106092;28;20063;-83
2022/05/07 07:54:12;;;;;;;11.88;5.07;;;;;;;19.37;48.50;93551.44;5103267;28;20048;-82
2022/05/07 07:56:39;;;;;;;16.17;5.15;;;;;;;19.46;46.63;93542.09;5090908;28;20052;-82
2022/05/07 07:59:06;;;;;;;10.43;4.90;;;;;;;19.60;46.90;93547.59;5090581;28;20101;-82
2022/05/07 08:01:33;;;;;;;9.90;4.25;;;;;;;19.76;47.07;93551.00;5090583;28;20515;-82
2022/05/07 08:03:59;;;;;;;8.02;4.00;;;;;;;19.75;45.16;93553.84;5090631;28;20388;-82
2022/05/07 08:06:29;;;;;;;11.73;4.43;;;;;;;19.84;44.48;93554.13;5090520;28;20075;-82
2022/05/07 08:11:46;;;;;;;14.13;5.07;;;;;;;20.17;46.27;93549.47;5098654;28;20514;-83
2022/05/07 08:14:14;;;;;;;10.10;4.63;;;;;;;20.28;46.26;93537.22;5096763;28;20510;-82
2022/05/07 08:16:42;;;;;;;10.20;4.40;;;;;;;20.51;45.62;93548.94;5096464;28;20047;-82
2022/05/07 08:19:09;;;;;;;13.25;4.68;;;;;;;20.64;43.76;93542.38;5110844;28;20437;-82
2022/05/07 08:21:37;;;;;;;15.00;4.45;;;;;;;20.83;44.94;93541.84;5111233;28;20043;-82
2022/05/07 08:24:04;;;;;;;16.08;4.85;;;;;;;20.88;42.98;93546.28;5113882;28;20048;-83
2022/05/07 08:26:31;;;;;;;9.18;4.75;;;;;;;20.77;43.79;93541.06;5114709;28;20047;-82
2022/05/07 08:28:58;;;;;;;13.73;5.22;;;;;;;20.05;43.99;93552.38;5114653;28;20059;-83
2022/05/07 08:31:25;;;;;;;10.18;4.00;;;;;;;19.83;44.88;93553.34;5114716;28;20048;-84
2022/05/07 08:33:54;;;;;;;8.43;3.60;;;;;;;19.95;45.55;93545.25;5114546;28;20043;-84
2022/05/07 08:36:22;;;;;;;8.02;3.85;;;;;;;19.72;44.78;93525.72;5114810;28;20481;-84
2022/05/07 08:38:50;;;;;;;9.40;4.32;;;;;;;19.99;44.73;93535.91;5116006;28;20043;-82
2022/05/07 08:41:18;;;;;;;11.23;5.18;;;;;;;20.03;42.04;93531.75;5114530;28;20060;-83
2022/05/07 08:43:45;;;;;;;9.40;3.50;;;;;;;19.95;42.85;93553.09;5114391;28;20073;-85
2022/05/07 08:46:14;;;;;;;9.73;4.00;;;;;;;19.83;44.78;93553.34;5114115;28;20051;-83
2022/05/07 08:48:42;;;;;;;9.93;3.58;;;;;;;19.94;45.83;93541.09;5114807;28;20059;-85
2022/05/07 08:51:10;;;;;;;8.15;4.03;;;;;;;19.99;45.37;93550.78;5114165;28;20134;-84
2022/05/07 08:53:37;;;;;;;10.00;3.78;;;;;;;19.78;45.68;93545.53;5114464;28;20103;-84
2022/05/07 08:56:07;;;;;;;5.43;3.08;;;;;;;19.74;44.46;93550.47;5116590;28;20055;-84
2022/05/07 08:58:38;;;;;;;4.80;2.97;;;;;;;18.76;45.91;93543.09;5115923;28;20052;-84
2022/05/07 09:01:05;;;;;;;5.82;3.20;;;;;;;18.32;48.21;93546.69;5117185;28;20059;-84
2022/05/07 09:03:43;;;;;;;7.35;3.88;;;;;;;18.05;47.86;93544.16;5114496;28;20047;-84
2022/05/07 09:06:24;;;;;;;6.45;3.28;;;;;;;18.13;47.85;93539.31;5114177;28;20054;-85
2022/05/07 09:08:52;;;;;;;5.80;2.75;;;;;;;18.13;47.96;93536.69;5114781;28;20048;-83
2022/05/07 09:11:22;;;;;;;5.32;2.83;;;;;;;17.93;47.01;93533.91;5113816;28;20052;-84
2022/05/07 09:13:59;;;;;;;4.68;2.78;;;;;;;18.24;49.01;93534.94;5114263;28;20047;-85
2022/05/07 09:16:37;;;;;;;5.78;2.85;;;;;;;17.60;48.32;93531.28;5113814;28;20058;-84
2022/05/07 09:19:05;;;;;;;5.50;2.90;;;;;;;18.16;50.49;93525.03;5113897;28;20134;-83
2022/05/07 09:21:34;;;;;;;3.97;3.28;;;;;;;18.10;47.29;93533.81;5113843;28;20051;-83
2022/05/07 09:24:06;;;;;;;5.07;3.63;;;;;;;17.88;49.33;93535.41;5113594;28;20138;-83
2022/05/07 09:26:37;;;;;;;4.72;2.92;;;;;;;18.16;48.32;93523.19;5113445;28;20048;-82
2022/05/07 09:29:08;;;;;;;3.92;2.47;;;;;;;18.61;45.34;93527.38;5113474;28;20044;-83
2022/05/07 09:31:36;;;;;;;4.68;2.65;;;;;;;18.48;48.26;93518.19;5113629;28;20066;-84
2022/05/07 09:36:56;;;;;;;4.97;2.55;;;;;;;18.50;45.18;93529.13;5113473;28;20054;-84
2022/05/07 09:39:23;;;;;;;3.95;2.25;;;;;;;18.92;45.88;93501.50;5113313;28;20052;-84
2022/05/07 09:41:58;;;;;;;4.32;2.88;;;;;;;18.47;48.66;93490.63;5113487;28;20173;-84
2022/05/07 09:44:28;;;;;;;3.40;2.50;;;;;;;19.03;48.24;93484.91;5113214;28;20399;-87
2022/05/07 09:46:55;;;;;;;4.35;2.60;;;;;;;19.25;43.38;93501.38;5113002;28;20052;-84
2022/05/07 09:49:24;;;;;;;5.40;2.80;;;;;;;19.32;44.67;93502.72;5113327;28;20044;-85
2022/05/07 09:51:53;;;;;;;4.35;2.83;;;;;;;19.51;44.56;93502.22;5113061;28;20044;-85
2022/05/07 09:59:53;;;;;;;5.30;2.65;;;;;;;21.43;41.83;93493.28;5112986;28;20148;-84
2022/05/07 10:02:28;;;;;;;4.07;2.38;;;;;;;21.23;41.80;93487.09;5113038;28;20055;-84
2022/05/07 10:05:14;;;;;;;5.15;3.05;;;;;;;21.11;39.79;93495.28;5112762;28;20055;-84
2022/05/07 10:08:36;;;;;;;4.80;3.10;;;;;;;20.48;40.80;93494.66;5112634;28;20048;-83
2022/05/07 10:11:04;;;;;;;3.80;2.40;;;;;;;20.68;40.51;93493.84;5049809;28;20060;-84
2022/05/07 10:13:33;;;;;;;5.60;2.53;;;;;;;20.95;42.26;93487.50;5049797;28;20049;-84
2022/05/07 10:16:01;;;;;;;6.50;3.33;;;;;;;21.18;42.06;93481.91;5078468;28;20109;-84
2022/05/07 10:18:35;;;;;;;3.42;2.40;;;;;;;21.28;41.35;93479.25;5112503;28;20130;-85
2022/05/07 10:21:12;;;;;;;3.88;2.92;;;;;;;20.45;41.55;93481.38;5112663;28;20130;-84
2022/05/07 10:23:49;;;;;;;4.82;2.90;;;;;;;20.75;41.06;93456.22;5112629;28;20055;-83
2022/05/07 10:26:17;;;;;;;5.43;3.47;;;;;;;20.44;42.77;93475.38;5112271;28;20417;-82
2022/05/07 10:28:45;;;;;;;4.50;2.70;;;;;;;19.83;40.84;93469.16;5112617;28;20137;-82
2022/05/07 10:31:19;;;;;;;5.32;3.65;;;;;;;19.69;42.39;93479.31;5112524;28;20051;-82
2022/05/07 10:33:46;;;;;;;4.18;2.80;;;;;;;19.76;41.43;93470.19;5112349;28;20055;-83
2022/05/07 10:36:14;;;;;;;5.32;2.28;;;;;;;19.62;42.42;93475.13;5112301;28;20509;-83
2022/05/07 10:38:42;;;;;;;4.10;2.63;;;;;;;20.08;42.34;93451.97;5109938;28;20051;-85
2022/05/07 10:41:20;;;;;;;4.20;2.20;;;;;;;20.46;42.57;93449.00;5112072;28;20399;-82
2022/05/07 10:44:00;;;;;;;5.80;1.77;;;;;;;20.79;41.50;93458.03;5091615;28;20052;-83
2022/05/07 10:46:38;;;;;;;3.97;2.17;;;;;;;20.70;40.86;93451.81;5090992;28;20074;-83
2022/05/07 10:49:05;;;;;;;2.60;1.60;;;;;;;21.01;40.70;93451.69;5091546;28;20048;-85
2022/05/07 10:51:33;;;;;;;3.97;2.22;;;;;;;21.54;39.91;93444.34;5091255;28;20066;-84
2022/05/07 10:54:03;;;;;;;5.07;2.50;;;;;;;22.10;37.64;93435.28;5091690;28;20059;-83
2022/05/07 10:56:32;;;;;;;3.33;1.98;;;;;;;21.64;37.81;93433.81;5091558;28;20052;-83
2022/05/07 10:59:01;;;;;;;3.90;2.05;;;;;;;20.51;38.07;93428.13;5091487;28;20580;-83
2022/05/07 11:01:31;;;;;;;4.00;2.20;;;;;;;21.59;38.73;93432.03;5091383;28;20388;-81
2022/05/07 11:04:05;;;;;;;5.50;2.80;;;;;;;21.48;36.42;93428.69;5091288;28;20093;-83
2022/05/07 11:06:32;;;;;;;8.60;2.42;;;;;;;20.18;37.76;93430.31;5092362;28;20419;-85
2022/05/07 11:08:59;;;;;;;3.40;2.15;;;;;;;20.44;39.69;93441.44;5091352;28;20098;-86
2022/05/07 11:11:26;;;;;;;4.18;2.42;;;;;;;20.04;38.65;93412.56;5091574;28;20071;-83
2022/05/07 11:13:55;;;;;;;8.32;3.08;;;;;;;20.99;39.10;93421.69;5091162;28;20058;-83
2022/05/07 11:16:25;;;;;;;3.60;2.00;;;;;;;21.31;35.30;93415.22;5090967;28;20055;-83
2022/05/07 11:18:53;;;;;;;3.22;2.05;;;;;;;21.32;35.58;93394.06;5091294;28;20048;-82
2022/05/07 11:21:20;;;;;;;4.93;2.17;;;;;;;22.11;36.89;93405.44;5091124;28;20073;-83
2022/05/07 11:23:54;;;;;;;3.25;1.65;;;;;;;22.53;36.30;93407.63;5091163;28;20094;-82
2022/05/07 11:26:22;;;;;;;5.30;2.00;;;;;;;21.42;35.07;93421.19;5091027;28;20055;-88
2022/05/07 11:28:49;;;;;;;3.00;2.00;;;;;;;21.38;37.69;93407.84;5090778;28;20466;-84
2022/05/07 11:31:28;;;;;;;3.95;1.85;;;;;;;22.16;35.83;93399.38;5091131;28;20079;-86
2022/05/07 11:34:06;;;;;;;4.90;2.65;;;;;;;22.73;35.59;93387.53;5091155;28;20135;-85
2022/05/07 11:36:34;;;;;;;3.63;2.10;;;;;;;22.50;34.30;93398.47;5090818;28;20131;-85
2022/05/07 11:39:02;;;;;;;3.65;2.00;;;;;;;22.06;33.51;93389.00;5090824;28;20070;-83
2022/05/07 11:41:28;;;;;;;4.13;1.90;;;;;;;21.32;34.85;93361.91;5090644;28;20048;-82
2022/05/07 11:46:54;;;;;;;3.15;1.83;;;;;;;20.13;36.49;93378.91;5109261;28;20128;-83
2022/05/07 11:49:33;;;;;;;5.95;3.40;;;;;;;20.81;34.83;93379.44;5110635;28;20051;-84
2022/05/07 11:52:08;;;;;;;6.43;3.38;;;;;;;21.27;36.84;93378.41;5109387;28;20083;-84
2022/05/07 11:54:35;;;;;;;3.70;2.13;;;;;;;21.95;35.83;93373.44;5110623;28;20058;-82
2022/05/07 11:57:02;;;;;;;3.13;1.73;;;;;;;21.32;33.83;93335.78;5111512;28;20043;-85
2022/05/07 11:59:28;;;;;;;3.25;1.73;;;;;;;21.19;35.95;93363.31;5115080;28;20036;-88
2022/05/07 12:01:57;;;;;;;5.75;2.17;;;;;;;21.15;34.48;93355.25;5114547;28;20039;-87
2022/05/07 12:04:32;;;;;;;3.25;1.88;;;;;;;21.09;33.59;93353.72;5115281;28;20487;-85